This is the latest recevied weather packets stored in our database for station/object SQ9MHX-13. If no packets are shown the sender has not sent any weather packets the latest 10 day(s).
| Time | Temp. | Humidity | Pressure | Rain* | Wind** | Luminosity | Snow |
|---|---|---|---|---|---|---|---|
| 1777946088 | 10° C | 60% | 969.6 hPa | - | 0 m/s | - | - |
| 1777945790 | 10° C | 59% | 969.7 hPa | - | 0 m/s | - | - |
| 1777945492 | 10° C | 60% | 970.5 hPa | - | 0 m/s | - | - |
| 1777945200 | 8.89° C | 64% | 972.4 hPa | - | 0 m/s | - | - |
| 1777944895 | 7.78° C | 66% | 972.6 hPa | - | 0 m/s | - | - |
| 1777944597 | 7.78° C | 66% | 971.7 hPa | - | 0 m/s | - | - |
| 1777944298 | 8.89° C | 61% | 970.6 hPa | - | 0 m/s | - | - |
| 1777944000 | 10° C | 59% | 970.3 hPa | - | 0 m/s | - | - |
| 1777943702 | 8.89° C | 61% | 971 hPa | - | 0 m/s | - | - |
| 1777943404 | 8.89° C | 66% | 970.6 hPa | - | 0 m/s | - | - |
| 1777943105 | 8.89° C | 65% | 970.1 hPa | - | 0 m/s | - | - |
| 1777942807 | 10° C | 61% | 969.3 hPa | - | 0 m/s | - | - |
| 1777942508 | 10° C | 60% | 969.4 hPa | - | 0 m/s | - | - |
| 1777942210 | 10° C | 61% | 969.4 hPa | - | 0 m/s | - | - |
| 1777941912 | 11.11° C | 58% | 969.1 hPa | - | 0 m/s | - | - |
| 1777941613 | 11.11° C | 54% | 968.9 hPa | - | 0 m/s | - | - |
| 1777941315 | 11.11° C | 54% | 968.7 hPa | - | 0 m/s | - | - |
| 1777941050 | 11.11° C | 53% | 968.2 hPa | - | 0 m/s | - | - |
| 1777941016 | 11.11° C | 53% | 968.2 hPa | - | 0 m/s | - | - |
| 1777940718 | 12.22° C | 51% | 967.8 hPa | - | 0 m/s | - | - |
| 1777940419 | 11.11° C | 54% | 968.5 hPa | - | 0 m/s | - | - |
| 1777940121 | 11.11° C | 55% | 968.5 hPa | - | 0 m/s | - | - |
| 1777939823 | 11.11° C | 56% | 968.6 hPa | - | 0 m/s | - | - |
| 1777939524 | 11.11° C | 55% | 968.8 hPa | - | 0 m/s | - | - |
| 1777939226 | 11.11° C | 56% | 969 hPa | - | 0 m/s | - | - |
* Rain since midnight (hover to see other rain measurements)
** Current wind speed in m/s (hover to see current wind gust speed)